sensor_id;sensor_type;location;lat;lon;timestamp;P1;durP1;ratioP1;P2;durP2;ratioP2
17193;SDS011;8713;48.388;10.928;2023-03-24T04:29:14;4.03;;;1.63;;
17193;SDS011;8713;48.388;10.928;2023-03-24T04:33:16;3.35;;;2.33;;
17193;SDS011;8713;48.388;10.928;2023-03-24T04:35:20;8.32;;;2.53;;
17193;SDS011;8713;48.388;10.928;2023-03-24T04:37:13;3.72;;;2.10;;
17193;SDS011;8713;48.388;10.928;2023-03-24T04:38:58;4.55;;;2.42;;
17193;SDS011;8713;48.388;10.928;2023-03-24T04:40:45;4.78;;;2.13;;
17193;SDS011;8713;48.388;10.928;2023-03-24T04:42:19;3.30;;;1.95;;
17193;SDS011;8713;48.388;10.928;2023-03-24T04:43:52;4.43;;;2.30;;
17193;SDS011;8713;48.388;10.928;2023-03-24T04:45:23;3.88;;;2.20;;
17193;SDS011;8713;48.388;10.928;2023-03-24T04:47:05;3.38;;;2.30;;
17193;SDS011;8713;48.388;10.928;2023-03-24T04:48:36;3.90;;;2.08;;
17193;SDS011;8713;48.388;10.928;2023-03-24T04:50:35;3.50;;;2.20;;
17193;SDS011;8713;48.388;10.928;2023-03-24T04:52:16;4.28;;;2.42;;
17193;SDS011;8713;48.388;10.928;2023-03-24T04:53:45;2.40;;;1.83;;
17193;SDS011;8713;48.388;10.928;2023-03-24T04:55:28;2.88;;;2.10;;
17193;SDS011;8713;48.388;10.928;2023-03-24T04:57:06;3.00;;;1.88;;
17193;SDS011;8713;48.388;10.928;2023-03-24T04:58:41;2.72;;;2.25;;
17193;SDS011;8713;48.388;10.928;2023-03-24T05:00:11;5.15;;;2.58;;
17193;SDS011;8713;48.388;10.928;2023-03-24T05:01:43;4.10;;;2.70;;
17193;SDS011;8713;48.388;10.928;2023-03-24T05:03:33;4.00;;;2.50;;
17193;SDS011;8713;48.388;10.928;2023-03-24T05:05:06;4.55;;;2.60;;
17193;SDS011;8713;48.388;10.928;2023-03-24T05:06:40;3.45;;;2.53;;
17193;SDS011;8713;48.388;10.928;2023-03-24T05:08:10;4.43;;;2.70;;
17193;SDS011;8713;48.388;10.928;2023-03-24T05:09:40;4.88;;;2.35;;
17193;SDS011;8713;48.388;10.928;2023-03-24T05:11:10;3.67;;;2.42;;
17193;SDS011;8713;48.388;10.928;2023-03-24T05:12:47;3.10;;;2.10;;
17193;SDS011;8713;48.388;10.928;2023-03-24T05:14:19;3.88;;;2.70;;
17193;SDS011;8713;48.388;10.928;2023-03-24T05:15:51;4.68;;;2.83;;
17193;SDS011;8713;48.388;10.928;2023-03-24T05:17:36;6.22;;;2.83;;
17193;SDS011;8713;48.388;10.928;2023-03-24T05:19:06;5.05;;;2.97;;
17193;SDS011;8713;48.388;10.928;2023-03-24T05:20:36;4.75;;;2.97;;
17193;SDS011;8713;48.388;10.928;2023-03-24T05:22:15;4.53;;;2.72;;
17193;SDS011;8713;48.388;10.928;2023-03-24T05:23:45;6.22;;;2.90;;
17193;SDS011;8713;48.388;10.928;2023-03-24T05:25:15;4.20;;;2.45;;
17193;SDS011;8713;48.388;10.928;2023-03-24T05:26:44;4.20;;;2.67;;
17193;SDS011;8713;48.388;10.928;2023-03-24T05:28:20;5.28;;;3.22;;
17193;SDS011;8713;48.388;10.928;2023-03-24T05:29:49;5.10;;;2.55;;
17193;SDS011;8713;48.388;10.928;2023-03-24T05:31:24;4.85;;;2.50;;
17193;SDS011;8713;48.388;10.928;2023-03-24T05:33:04;3.67;;;2.30;;
17193;SDS011;8713;48.388;10.928;2023-03-24T05:34:34;4.45;;;2.30;;
17193;SDS011;8713;48.388;10.928;2023-03-24T05:36:16;6.30;;;2.78;;
17193;SDS011;8713;48.388;10.928;2023-03-24T05:37:50;4.32;;;2.33;;
17193;SDS011;8713;48.388;10.928;2023-03-24T05:39:20;4.47;;;2.67;;
17193;SDS011;8713;48.388;10.928;2023-03-24T05:40:58;5.05;;;2.17;;
17193;SDS011;8713;48.388;10.928;2023-03-24T05:42:33;5.10;;;2.55;;
17193;SDS011;8713;48.388;10.928;2023-03-24T05:44:05;7.15;;;2.95;;
17193;SDS011;8713;48.388;10.928;2023-03-24T05:45:34;3.50;;;2.45;;
17193;SDS011;8713;48.388;10.928;2023-03-24T05:47:05;4.47;;;2.55;;
17193;SDS011;8713;48.388;10.928;2023-03-24T05:48:35;4.20;;;3.05;;
17193;SDS011;8713;48.388;10.928;2023-03-24T05:50:17;3.53;;;2.22;;
17193;SDS011;8713;48.388;10.928;2023-03-24T05:51:47;5.55;;;2.78;;
17193;SDS011;8713;48.388;10.928;2023-03-24T05:53:17;4.80;;;2.65;;
17193;SDS011;8713;48.388;10.928;2023-03-24T05:55:10;4.20;;;2.45;;
17193;SDS011;8713;48.388;10.928;2023-03-24T05:56:40;5.55;;;2.55;;
17193;SDS011;8713;48.388;10.928;2023-03-24T05:58:42;5.47;;;2.60;;
17193;SDS011;8713;48.388;10.928;2023-03-24T06:00:14;3.58;;;2.38;;
17193;SDS011;8713;48.388;10.928;2023-03-24T06:02:19;3.78;;;2.30;;
17193;SDS011;8713;48.388;10.928;2023-03-24T06:04:00;4.63;;;2.40;;
17193;SDS011;8713;48.388;10.928;2023-03-24T06:05:30;3.60;;;2.63;;
17193;SDS011;8713;48.388;10.928;2023-03-24T06:07:00;4.40;;;2.92;;
17193;SDS011;8713;48.388;10.928;2023-03-24T06:08:34;5.30;;;2.72;;
17193;SDS011;8713;48.388;10.928;2023-03-24T06:10:04;4.63;;;2.78;;
17193;SDS011;8713;48.388;10.928;2023-03-24T06:11:43;4.53;;;2.47;;
17193;SDS011;8713;48.388;10.928;2023-03-24T06:13:15;2.97;;;1.92;;
17193;SDS011;8713;48.388;10.928;2023-03-24T06:14:47;3.92;;;2.33;;
17193;SDS011;8713;48.388;10.928;2023-03-24T06:16:17;4.07;;;2.50;;
17193;SDS011;8713;48.388;10.928;2023-03-24T06:17:56;3.83;;;2.25;;
17193;SDS011;8713;48.388;10.928;2023-03-24T06:19:33;5.10;;;2.72;;
17193;SDS011;8713;48.388;10.928;2023-03-24T06:21:18;4.43;;;2.40;;
17193;SDS011;8713;48.388;10.928;2023-03-24T06:22:49;4.07;;;2.65;;
17193;SDS011;8713;48.388;10.928;2023-03-24T06:24:25;3.47;;;2.38;;
17193;SDS011;8713;48.388;10.928;2023-03-24T06:25:56;3.47;;;2.65;;
17193;SDS011;8713;48.388;10.928;2023-03-24T06:27:30;4.13;;;2.58;;
17193;SDS011;8713;48.388;10.928;2023-03-24T06:29:01;4.60;;;2.67;;
17193;SDS011;8713;48.388;10.928;2023-03-24T06:30:35;3.47;;;2.45;;
17193;SDS011;8713;48.388;10.928;2023-03-24T06:32:05;4.85;;;2.70;;
17193;SDS011;8713;48.388;10.928;2023-03-24T06:33:42;4.10;;;2.58;;
17193;SDS011;8713;48.388;10.928;2023-03-24T06:35:15;3.20;;;2.25;;
17193;SDS011;8713;48.388;10.928;2023-03-24T06:36:56;5.05;;;2.40;;
17193;SDS011;8713;48.388;10.928;2023-03-24T06:38:26;4.25;;;2.45;;
17193;SDS011;8713;48.388;10.928;2023-03-24T06:39:56;4.88;;;2.65;;
17193;SDS011;8713;48.388;10.928;2023-03-24T06:41:28;5.65;;;3.00;;
17193;SDS011;8713;48.388;10.928;2023-03-24T06:43:02;3.95;;;2.90;;
17193;SDS011;8713;48.388;10.928;2023-03-24T06:44:33;5.15;;;2.50;;
17193;SDS011;8713;48.388;10.928;2023-03-24T06:46:02;3.75;;;2.58;;
17193;SDS011;8713;48.388;10.928;2023-03-24T06:47:33;5.00;;;2.70;;
17193;SDS011;8713;48.388;10.928;2023-03-24T06:49:03;4.93;;;3.10;;
17193;SDS011;8713;48.388;10.928;2023-03-24T06:50:33;4.72;;;3.47;;
17193;SDS011;8713;48.388;10.928;2023-03-24T06:52:08;5.28;;;3.38;;
17193;SDS011;8713;48.388;10.928;2023-03-24T06:53:42;4.82;;;3.35;;
17193;SDS011;8713;48.388;10.928;2023-03-24T06:55:15;4.88;;;3.20;;
17193;SDS011;8713;48.388;10.928;2023-03-24T06:56:44;5.50;;;3.35;;
17193;SDS011;8713;48.388;10.928;2023-03-24T06:58:14;3.97;;;2.65;;
17193;SDS011;8713;48.388;10.928;2023-03-24T06:59:58;6.32;;;2.90;;
17193;SDS011;8713;48.388;10.928;2023-03-24T07:01:33;3.65;;;2.83;;
17193;SDS011;8713;48.388;10.928;2023-03-24T07:03:14;4.47;;;2.80;;
17193;SDS011;8713;48.388;10.928;2023-03-24T07:04:51;4.00;;;2.50;;
17193;SDS011;8713;48.388;10.928;2023-03-24T07:06:39;6.25;;;2.97;;
17193;SDS011;8713;48.388;10.928;2023-03-24T07:08:15;4.03;;;2.58;;
17193;SDS011;8713;48.388;10.928;2023-03-24T07:09:51;3.90;;;2.63;;
17193;SDS011;8713;48.388;10.928;2023-03-24T07:11:20;4.35;;;2.60;;
17193;SDS011;8713;48.388;10.928;2023-03-24T07:12:55;3.70;;;2.17;;
17193;SDS011;8713;48.388;10.928;2023-03-24T07:14:25;3.47;;;2.00;;
17193;SDS011;8713;48.388;10.928;2023-03-24T07:15:56;3.15;;;2.30;;
17193;SDS011;8713;48.388;10.928;2023-03-24T07:17:26;3.30;;;2.08;;
17193;SDS011;8713;48.388;10.928;2023-03-24T07:19:08;4.13;;;1.90;;
17193;SDS011;8713;48.388;10.928;2023-03-24T07:20:41;3.38;;;2.00;;
17193;SDS011;8713;48.388;10.928;2023-03-24T07:22:19;2.42;;;1.55;;
17193;SDS011;8713;48.388;10.928;2023-03-24T07:24:07;2.17;;;1.40;;
17193;SDS011;8713;48.388;10.928;2023-03-24T07:25:59;3.13;;;1.67;;
17193;SDS011;8713;48.388;10.928;2023-03-24T07:27:47;2.83;;;1.58;;
17193;SDS011;8713;48.388;10.928;2023-03-24T07:29:17;2.22;;;1.40;;
17193;SDS011;8713;48.388;10.928;2023-03-24T07:31:16;3.45;;;1.50;;
17193;SDS011;8713;48.388;10.928;2023-03-24T07:32:47;2.28;;;1.50;;
17193;SDS011;8713;48.388;10.928;2023-03-24T07:34:19;1.80;;;1.35;;
17193;SDS011;8713;48.388;10.928;2023-03-24T07:35:48;2.20;;;1.30;;
17193;SDS011;8713;48.388;10.928;2023-03-24T07:37:24;2.08;;;1.40;;
17193;SDS011;8713;48.388;10.928;2023-03-24T07:38:53;1.83;;;1.50;;
17193;SDS011;8713;48.388;10.928;2023-03-24T07:40:29;2.13;;;1.40;;
17193;SDS011;8713;48.388;10.928;2023-03-24T07:41:59;2.30;;;1.63;;
17193;SDS011;8713;48.388;10.928;2023-03-24T07:44:01;2.95;;;1.63;;
17193;SDS011;8713;48.388;10.928;2023-03-24T07:45:36;2.75;;;1.42;;
17193;SDS011;8713;48.388;10.928;2023-03-24T07:47:06;3.03;;;1.52;;
17193;SDS011;8713;48.388;10.928;2023-03-24T07:48:35;2.95;;;1.40;;
17193;SDS011;8713;48.388;10.928;2023-03-24T07:50:05;3.05;;;1.60;;
17193;SDS011;8713;48.388;10.928;2023-03-24T07:51:38;2.20;;;1.52;;
17193;SDS011;8713;48.388;10.928;2023-03-24T07:53:20;2.22;;;1.40;;
17193;SDS011;8713;48.388;10.928;2023-03-24T07:54:50;2.28;;;1.55;;
17193;SDS011;8713;48.388;10.928;2023-03-24T07:56:39;2.60;;;1.40;;
17193;SDS011;8713;48.388;10.928;2023-03-24T07:58:10;2.30;;;1.55;;
17193;SDS011;8713;48.388;10.928;2023-03-24T07:59:44;4.50;;;1.38;;
17193;SDS011;8713;48.388;10.928;2023-03-24T08:01:40;1.85;;;1.40;;
17193;SDS011;8713;48.388;10.928;2023-03-24T08:03:12;2.08;;;1.50;;
17193;SDS011;8713;48.388;10.928;2023-03-24T08:05:09;3.00;;;1.67;;
17193;SDS011;8713;48.388;10.928;2023-03-24T08:07:05;3.03;;;1.25;;
17193;SDS011;8713;48.388;10.928;2023-03-24T08:08:36;1.73;;;1.30;;
17193;SDS011;8713;48.388;10.928;2023-03-24T08:10:15;2.90;;;1.50;;
17193;SDS011;8713;48.388;10.928;2023-03-24T08:11:45;1.70;;;1.15;;
17193;SDS011;8713;48.388;10.928;2023-03-24T08:13:15;2.80;;;1.60;;
17193;SDS011;8713;48.388;10.928;2023-03-24T08:14:46;1.58;;;0.98;;
17193;SDS011;8713;48.388;10.928;2023-03-24T08:16:15;3.70;;;1.52;;
17193;SDS011;8713;48.388;10.928;2023-03-24T08:17:46;2.17;;;1.27;;
17193;SDS011;8713;48.388;10.928;2023-03-24T08:19:16;2.17;;;1.50;;
17193;SDS011;8713;48.388;10.928;2023-03-24T08:20:47;2.45;;;1.33;;
17193;SDS011;8713;48.388;10.928;2023-03-24T08:22:17;3.50;;;1.33;;
17193;SDS011;8713;48.388;10.928;2023-03-24T08:23:47;1.80;;;1.13;;
17193;SDS011;8713;48.388;10.928;2023-03-24T08:25:17;2.75;;;1.38;;
17193;SDS011;8713;48.388;10.928;2023-03-24T08:26:47;2.50;;;1.67;;
17193;SDS011;8713;48.388;10.928;2023-03-24T08:28:17;1.85;;;0.90;;
17193;SDS011;8713;48.388;10.928;2023-03-24T08:29:47;2.95;;;1.45;;
17193;SDS011;8713;48.388;10.928;2023-03-24T08:31:16;1.98;;;1.30;;
17193;SDS011;8713;48.388;10.928;2023-03-24T08:32:47;2.35;;;1.50;;
17193;SDS011;8713;48.388;10.928;2023-03-24T08:34:21;2.47;;;1.48;;
17193;SDS011;8713;48.388;10.928;2023-03-24T08:35:52;2.15;;;1.40;;
17193;SDS011;8713;48.388;10.928;2023-03-24T08:37:25;2.55;;;1.38;;
17193;SDS011;8713;48.388;10.928;2023-03-24T08:38:55;2.88;;;1.70;;
17193;SDS011;8713;48.388;10.928;2023-03-24T08:40:26;2.30;;;1.25;;
17193;SDS011;8713;48.388;10.928;2023-03-24T08:41:56;2.35;;;1.48;;
17193;SDS011;8713;48.388;10.928;2023-03-24T08:43:27;2.83;;;1.45;;
17193;SDS011;8713;48.388;10.928;2023-03-24T08:44:58;3.08;;;1.25;;
17193;SDS011;8713;48.388;10.928;2023-03-24T08:46:29;2.63;;;1.45;;
17193;SDS011;8713;48.388;10.928;2023-03-24T08:48:00;3.22;;;1.60;;
17193;SDS011;8713;48.388;10.928;2023-03-24T08:49:31;3.08;;;1.50;;
17193;SDS011;8713;48.388;10.928;2023-03-24T08:51:08;3.20;;;1.40;;
17193;SDS011;8713;48.388;10.928;2023-03-24T08:52:43;1.85;;;1.20;;
17193;SDS011;8713;48.388;10.928;2023-03-24T08:54:16;1.98;;;1.30;;
17193;SDS011;8713;48.388;10.928;2023-03-24T08:55:46;2.40;;;1.42;;
17193;SDS011;8713;48.388;10.928;2023-03-24T08:57:15;2.90;;;1.35;;
17193;SDS011;8713;48.388;10.928;2023-03-24T08:58:46;2.28;;;1.50;;
17193;SDS011;8713;48.388;10.928;2023-03-24T09:00:21;2.47;;;1.10;;
17193;SDS011;8713;48.388;10.928;2023-03-24T09:01:51;0.50;;;0.50;;
17193;SDS011;8713;48.388;10.928;2023-03-24T09:03:21;2.42;;;1.48;;
17193;SDS011;8713;48.388;10.928;2023-03-24T09:04:51;2.97;;;1.27;;
17193;SDS011;8713;48.388;10.928;2023-03-24T09:06:23;2.72;;;1.55;;
17193;SDS011;8713;48.388;10.928;2023-03-24T09:07:55;2.38;;;1.60;;
17193;SDS011;8713;48.388;10.928;2023-03-24T09:09:24;2.90;;;1.55;;
17193;SDS011;8713;48.388;10.928;2023-03-24T09:10:55;2.00;;;1.30;;
17193;SDS011;8713;48.388;10.928;2023-03-24T09:12:24;2.33;;;1.38;;
17193;SDS011;8713;48.388;10.928;2023-03-24T09:13:54;3.20;;;1.50;;
17193;SDS011;8713;48.388;10.928;2023-03-24T09:15:24;4.32;;;1.88;;
17193;SDS011;8713;48.388;10.928;2023-03-24T09:16:54;2.65;;;1.60;;
17193;SDS011;8713;48.388;10.928;2023-03-24T09:18:24;3.67;;;1.63;;
17193;SDS011;8713;48.388;10.928;2023-03-24T09:19:54;5.47;;;1.80;;
17193;SDS011;8713;48.388;10.928;2023-03-24T09:21:14;3.88;;;1.73;;
17193;SDS011;8713;48.388;10.928;2023-03-24T09:22:24;1.88;;;1.42;;
17193;SDS011;8713;48.388;10.928;2023-03-24T09:23:33;2.13;;;1.33;;
17193;SDS011;8713;48.388;10.928;2023-03-24T09:24:43;2.08;;;1.33;;
17193;SDS011;8713;48.388;10.928;2023-03-24T09:26:11;2.45;;;1.20;;
17193;SDS011;8713;48.388;10.928;2023-03-24T09:27:39;3.13;;;1.73;;
17193;SDS011;8713;48.388;10.928;2023-03-24T09:29:07;3.42;;;1.70;;
17193;SDS011;8713;48.388;10.928;2023-03-24T09:30:36;3.00;;;1.33;;
17193;SDS011;8713;48.388;10.928;2023-03-24T09:32:04;1.98;;;1.38;;
17193;SDS011;8713;48.388;10.928;2023-03-24T09:33:33;2.63;;;1.42;;
17193;SDS011;8713;48.388;10.928;2023-03-24T09:35:02;2.30;;;1.27;;
17193;SDS011;8713;48.388;10.928;2023-03-24T09:36:11;0.43;;;0.30;;
17193;SDS011;8713;48.388;10.928;2023-03-24T09:37:27;4.50;;;1.08;;
17193;SDS011;8713;48.388;10.928;2023-03-24T09:38:44;1.05;;;0.63;;
17193;SDS011;8713;48.388;10.928;2023-03-24T09:40:17;3.05;;;1.58;;
17193;SDS011;8713;48.388;10.928;2023-03-24T09:41:30;1.73;;;1.00;;
17193;SDS011;8713;48.388;10.928;2023-03-24T09:42:39;1.85;;;1.10;;
17193;SDS011;8713;48.388;10.928;2023-03-24T09:43:54;2.67;;;1.42;;
17193;SDS011;8713;48.388;10.928;2023-03-24T09:45:15;1.90;;;1.02;;
17193;SDS011;8713;48.388;10.928;2023-03-24T09:46:34;1.85;;;1.10;;
17193;SDS011;8713;48.388;10.928;2023-03-24T09:48:34;3.33;;;1.17;;
17193;SDS011;8713;48.388;10.928;2023-03-24T09:49:39;3.72;;;1.42;;
17193;SDS011;8713;48.388;10.928;2023-03-24T09:50:55;1.30;;;0.85;;
17193;SDS011;8713;48.388;10.928;2023-03-24T09:52:09;2.88;;;1.50;;
17193;SDS011;8713;48.388;10.928;2023-03-24T09:53:36;2.50;;;1.40;;
17193;SDS011;8713;48.388;10.928;2023-03-24T09:55:10;2.95;;;1.20;;
17193;SDS011;8713;48.388;10.928;2023-03-24T09:56:23;3.15;;;1.25;;
17193;SDS011;8713;48.388;10.928;2023-03-24T09:57:35;4.75;;;1.58;;
17193;SDS011;8713;48.388;10.928;2023-03-24T09:58:52;1.80;;;0.93;;
17193;SDS011;8713;48.388;10.928;2023-03-24T10:00:21;2.50;;;1.30;;
17193;SDS011;8713;48.388;10.928;2023-03-24T10:01:39;2.05;;;1.20;;
17193;SDS011;8713;48.388;10.928;2023-03-24T10:02:49;1.75;;;1.13;;
17193;SDS011;8713;48.388;10.928;2023-03-24T10:03:59;2.13;;;1.23;;
17193;SDS011;8713;48.388;10.928;2023-03-24T10:05:17;1.13;;;0.73;;
17193;SDS011;8713;48.388;10.928;2023-03-24T10:06:33;1.00;;;0.90;;
17193;SDS011;8713;48.388;10.928;2023-03-24T10:15:42;1.83;;;0.73;;
17193;SDS011;8713;48.388;10.928;2023-03-24T10:18:59;2.38;;;1.17;;
17193;SDS011;8713;48.388;10.928;2023-03-24T10:20:19;2.45;;;1.00;;
17193;SDS011;8713;48.388;10.928;2023-03-24T10:22:03;1.83;;;1.02;;
17193;SDS011;8713;48.388;10.928;2023-03-24T10:23:44;1.95;;;1.13;;
17193;SDS011;8713;48.388;10.928;2023-03-24T10:25:25;2.40;;;1.42;;
17193;SDS011;8713;48.388;10.928;2023-03-24T10:26:57;3.33;;;1.60;;
17193;SDS011;8713;48.388;10.928;2023-03-24T10:28:20;1.80;;;1.20;;
17193;SDS011;8713;48.388;10.928;2023-03-24T10:29:33;1.38;;;1.17;;
17193;SDS011;8713;48.388;10.928;2023-03-24T10:30:44;2.45;;;1.50;;
17193;SDS011;8713;48.388;10.928;2023-03-24T10:31:58;3.30;;;1.60;;
17193;SDS011;8713;48.388;10.928;2023-03-24T10:33:16;1.10;;;0.80;;
17193;SDS011;8713;48.388;10.928;2023-03-24T10:34:27;3.13;;;1.25;;
17193;SDS011;8713;48.388;10.928;2023-03-24T10:35:42;1.52;;;0.98;;
17193;SDS011;8713;48.388;10.928;2023-03-24T10:37:15;2.47;;;1.60;;
17193;SDS011;8713;48.388;10.928;2023-03-24T10:38:25;2.38;;;1.60;;
17193;SDS011;8713;48.388;10.928;2023-03-24T10:39:35;2.95;;;1.50;;
17193;SDS011;8713;48.388;10.928;2023-03-24T10:40:45;2.22;;;1.30;;
17193;SDS011;8713;48.388;10.928;2023-03-24T10:41:56;3.15;;;1.73;;
17193;SDS011;8713;48.388;10.928;2023-03-24T10:43:06;4.72;;;1.63;;
17193;SDS011;8713;48.388;10.928;2023-03-24T10:44:15;4.07;;;1.58;;
17193;SDS011;8713;48.388;10.928;2023-03-24T10:45:27;3.30;;;1.65;;
17193;SDS011;8713;48.388;10.928;2023-03-24T10:46:50;2.25;;;1.48;;
17193;SDS011;8713;48.388;10.928;2023-03-24T10:48:02;2.17;;;1.50;;
17193;SDS011;8713;48.388;10.928;2023-03-24T10:50:23;2.08;;;1.42;;
17193;SDS011;8713;48.388;10.928;2023-03-24T10:51:35;2.75;;;1.30;;
17193;SDS011;8713;48.388;10.928;2023-03-24T10:52:45;1.98;;;1.35;;
17193;SDS011;8713;48.388;10.928;2023-03-24T10:54:16;2.38;;;1.42;;
17193;SDS011;8713;48.388;10.928;2023-03-24T10:55:29;2.67;;;1.08;;
17193;SDS011;8713;48.388;10.928;2023-03-24T10:57:03;3.13;;;1.00;;
17193;SDS011;8713;48.388;10.928;2023-03-24T10:58:22;1.48;;;1.13;;
17193;SDS011;8713;48.388;10.928;2023-03-24T10:59:45;2.70;;;1.40;;
17193;SDS011;8713;48.388;10.928;2023-03-24T11:03:11;2.95;;;1.35;;
17193;SDS011;8713;48.388;10.928;2023-03-24T11:04:51;1.73;;;1.30;;
17193;SDS011;8713;48.388;10.928;2023-03-24T11:06:28;1.95;;;1.35;;
17193;SDS011;8713;48.388;10.928;2023-03-24T11:07:39;1.38;;;1.23;;
17193;SDS011;8713;48.388;10.928;2023-03-24T11:09:10;1.83;;;1.13;;
17193;SDS011;8713;48.388;10.928;2023-03-24T11:10:28;1.35;;;0.90;;
17193;SDS011;8713;48.388;10.928;2023-03-24T11:11:37;2.75;;;1.08;;
17193;SDS011;8713;48.388;10.928;2023-03-24T11:14:02;1.70;;;1.02;;
17193;SDS011;8713;48.388;10.928;2023-03-24T11:15:13;1.02;;;0.93;;
17193;SDS011;8713;48.388;10.928;2023-03-24T11:16:26;2.33;;;1.30;;
17193;SDS011;8713;48.388;10.928;2023-03-24T11:17:39;1.20;;;0.90;;
17193;SDS011;8713;48.388;10.928;2023-03-24T11:19:23;2.17;;;1.10;;
17193;SDS011;8713;48.388;10.928;2023-03-24T11:21:50;1.52;;;1.05;;
17193;SDS011;8713;48.388;10.928;2023-03-24T11:24:18;2.83;;;1.67;;
17193;SDS011;8713;48.388;10.928;2023-03-24T11:25:29;2.78;;;1.20;;
17193;SDS011;8713;48.388;10.928;2023-03-24T11:26:58;1.75;;;1.50;;
17193;SDS011;8713;48.388;10.928;2023-03-24T11:28:16;1.02;;;0.93;;
17193;SDS011;8713;48.388;10.928;2023-03-24T11:29:53;1.20;;;1.10;;
17193;SDS011;8713;48.388;10.928;2023-03-24T11:31:28;1.33;;;1.00;;
17193;SDS011;8713;48.388;10.928;2023-03-24T11:32:59;2.35;;;1.10;;
17193;SDS011;8713;48.388;10.928;2023-03-24T11:34:30;1.73;;;1.00;;
17193;SDS011;8713;48.388;10.928;2023-03-24T11:36:04;1.98;;;0.80;;
17193;SDS011;8713;48.388;10.928;2023-03-24T11:38:02;1.75;;;1.20;;
17193;SDS011;8713;48.388;10.928;2023-03-24T11:39:31;1.67;;;1.20;;
17193;SDS011;8713;48.388;10.928;2023-03-24T11:41:03;1.95;;;0.90;;
17193;SDS011;8713;48.388;10.928;2023-03-24T11:42:25;2.33;;;1.33;;
17193;SDS011;8713;48.388;10.928;2023-03-24T11:44:15;1.48;;;1.38;;
17193;SDS011;8713;48.388;10.928;2023-03-24T11:46:08;1.70;;;1.20;;
17193;SDS011;8713;48.388;10.928;2023-03-24T11:47:41;4.28;;;1.40;;
17193;SDS011;8713;48.388;10.928;2023-03-24T11:49:10;1.48;;;1.20;;
17193;SDS011;8713;48.388;10.928;2023-03-24T11:50:42;1.95;;;1.30;;
17193;SDS011;8713;48.388;10.928;2023-03-24T11:51:52;2.05;;;1.25;;
17193;SDS011;8713;48.388;10.928;2023-03-24T11:53:27;2.13;;;1.38;;
17193;SDS011;8713;48.388;10.928;2023-03-24T11:55:12;2.35;;;1.35;;
17193;SDS011;8713;48.388;10.928;2023-03-24T11:56:46;1.55;;;1.20;;
17193;SDS011;8713;48.388;10.928;2023-03-24T12:05:35;4.60;;;1.50;;
17193;SDS011;8713;48.388;10.928;2023-03-24T12:13:10;2.67;;;1.50;;
17193;SDS011;8713;48.388;10.928;2023-03-24T12:20:25;2.42;;;1.50;;
17193;SDS011;8713;48.388;10.928;2023-03-24T12:23:57;1.90;;;1.00;;
17193;SDS011;8713;48.388;10.928;2023-03-24T12:31:25;1.77;;;0.90;;
17193;SDS011;8713;48.388;10.928;2023-03-24T12:35:32;0.73;;;0.60;;
17193;SDS011;8713;48.388;10.928;2023-03-24T12:37:20;0.77;;;0.63;;
17193;SDS011;8713;48.388;10.928;2023-03-24T12:38:58;8.15;;;1.33;;
17193;SDS011;8713;48.388;10.928;2023-03-24T12:40:50;0.43;;;0.40;;
17193;SDS011;8713;48.388;10.928;2023-03-24T12:42:38;1.65;;;0.77;;
17193;SDS011;8713;48.388;10.928;2023-03-24T12:44:18;0.93;;;0.52;;
17193;SDS011;8713;48.388;10.928;2023-03-24T12:45:56;0.85;;;0.73;;
17193;SDS011;8713;48.388;10.928;2023-03-24T12:47:34;1.65;;;0.70;;
17193;SDS011;8713;48.388;10.928;2023-03-24T12:55:42;0.70;;;0.60;;
17193;SDS011;8713;48.388;10.928;2023-03-24T12:57:26;2.40;;;0.60;;
17193;SDS011;8713;48.388;10.928;2023-03-24T12:58:48;0.70;;;0.50;;
17193;SDS011;8713;48.388;10.928;2023-03-24T13:00:32;0.55;;;0.40;;
17193;SDS011;8713;48.388;10.928;2023-03-24T13:02:15;1.02;;;0.60;;
17193;SDS011;8713;48.388;10.928;2023-03-24T13:03:57;0.57;;;0.50;;
17193;SDS011;8713;48.388;10.928;2023-03-24T13:05:34;1.55;;;0.70;;
17193;SDS011;8713;48.388;10.928;2023-03-24T13:07:12;1.23;;;0.65;;
17193;SDS011;8713;48.388;10.928;2023-03-24T13:08:26;2.20;;;0.60;;
17193;SDS011;8713;48.388;10.928;2023-03-24T13:09:59;0.90;;;0.60;;
17193;SDS011;8713;48.388;10.928;2023-03-24T13:13:40;1.13;;;0.60;;
17193;SDS011;8713;48.388;10.928;2023-03-24T13:15:14;0.80;;;0.50;;
17193;SDS011;8713;48.388;10.928;2023-03-24T13:16:38;0.73;;;0.60;;
17193;SDS011;8713;48.388;10.928;2023-03-24T13:19:38;0.90;;;0.68;;
17193;SDS011;8713;48.388;10.928;2023-03-24T13:22:46;0.90;;;0.60;;
17193;SDS011;8713;48.388;10.928;2023-03-24T13:24:05;1.20;;;0.65;;
17193;SDS011;8713;48.388;10.928;2023-03-24T13:25:38;1.88;;;0.80;;
17193;SDS011;8713;48.388;10.928;2023-03-24T13:27:18;1.60;;;0.77;;
17193;SDS011;8713;48.388;10.928;2023-03-24T13:29:15;2.38;;;0.75;;
17193;SDS011;8713;48.388;10.928;2023-03-24T13:31:07;1.35;;;0.63;;
17193;SDS011;8713;48.388;10.928;2023-03-24T13:33:32;0.70;;;0.60;;
17193;SDS011;8713;48.388;10.928;2023-03-24T13:37:18;1.30;;;0.60;;
17193;SDS011;8713;48.388;10.928;2023-03-24T13:38:50;3.60;;;0.60;;
17193;SDS011;8713;48.388;10.928;2023-03-24T13:40:24;1.30;;;0.57;;
17193;SDS011;8713;48.388;10.928;2023-03-24T13:41:56;2.80;;;0.70;;
17193;SDS011;8713;48.388;10.928;2023-03-24T13:43:25;0.90;;;0.80;;
17193;SDS011;8713;48.388;10.928;2023-03-24T13:44:58;0.63;;;0.50;;
17193;SDS011;8713;48.388;10.928;2023-03-24T13:46:27;1.45;;;0.50;;
17193;SDS011;8713;48.388;10.928;2023-03-24T13:48:03;0.90;;;0.45;;
17193;SDS011;8713;48.388;10.928;2023-03-24T13:49:36;0.60;;;0.43;;
17193;SDS011;8713;48.388;10.928;2023-03-24T13:52:20;0.63;;;0.40;;
17193;SDS011;8713;48.388;10.928;2023-03-24T13:54:08;1.63;;;0.60;;
17193;SDS011;8713;48.388;10.928;2023-03-24T13:55:50;1.20;;;0.65;;
17193;SDS011;8713;48.388;10.928;2023-03-24T13:57:19;1.63;;;0.93;;
17193;SDS011;8713;48.388;10.928;2023-03-24T14:00:24;0.63;;;0.52;;
17193;SDS011;8713;48.388;10.928;2023-03-24T14:05:55;4.10;;;0.65;;
17193;SDS011;8713;48.388;10.928;2023-03-24T14:09:05;0.95;;;0.52;;
17193;SDS011;8713;48.388;10.928;2023-03-24T14:10:57;0.95;;;0.60;;
17193;SDS011;8713;48.388;10.928;2023-03-24T14:12:25;1.85;;;0.50;;
17193;SDS011;8713;48.388;10.928;2023-03-24T14:13:53;1.08;;;0.50;;
17193;SDS011;8713;48.388;10.928;2023-03-24T14:21:28;0.88;;;0.40;;
17193;SDS011;8713;48.388;10.928;2023-03-24T14:22:58;1.10;;;0.60;;
17193;SDS011;8713;48.388;10.928;2023-03-24T14:24:27;2.47;;;0.60;;
17193;SDS011;8713;48.388;10.928;2023-03-24T14:25:56;0.60;;;0.50;;
17193;SDS011;8713;48.388;10.928;2023-03-24T14:29:03;0.95;;;0.40;;
17193;SDS011;8713;48.388;10.928;2023-03-24T14:30:32;3.65;;;0.60;;
17193;SDS011;8713;48.388;10.928;2023-03-24T14:32:05;0.85;;;0.60;;
17193;SDS011;8713;48.388;10.928;2023-03-24T14:33:22;1.50;;;0.50;;
17193;SDS011;8713;48.388;10.928;2023-03-24T14:34:36;0.52;;;0.43;;
17193;SDS011;8713;48.388;10.928;2023-03-24T14:36:04;0.47;;;0.40;;
17193;SDS011;8713;48.388;10.928;2023-03-24T14:37:38;1.00;;;0.50;;
17193;SDS011;8713;48.388;10.928;2023-03-24T14:41:13;1.60;;;0.60;;
17193;SDS011;8713;48.388;10.928;2023-03-24T14:43:59;1.30;;;0.32;;
17193;SDS011;8713;48.388;10.928;2023-03-24T14:45:38;0.57;;;0.40;;
17193;SDS011;8713;48.388;10.928;2023-03-24T14:47:08;0.52;;;0.35;;
17193;SDS011;8713;48.388;10.928;2023-03-24T14:50:19;0.95;;;0.50;;
17193;SDS011;8713;48.388;10.928;2023-03-24T14:51:40;0.55;;;0.38;;
17193;SDS011;8713;48.388;10.928;2023-03-24T14:53:11;1.38;;;0.52;;
17193;SDS011;8713;48.388;10.928;2023-03-24T14:54:52;2.15;;;0.60;;
17193;SDS011;8713;48.388;10.928;2023-03-24T14:56:26;0.35;;;0.30;;
17193;SDS011;8713;48.388;10.928;2023-03-24T14:58:09;1.20;;;0.50;;
17193;SDS011;8713;48.388;10.928;2023-03-24T14:59:45;0.52;;;0.47;;
17193;SDS011;8713;48.388;10.928;2023-03-24T15:01:28;0.65;;;0.50;;
17193;SDS011;8713;48.388;10.928;2023-03-24T15:03:41;2.85;;;0.63;;